ADDS METAR Data INFO
IDs: Format: Raw Decoded Include TAF

Data at: 0354 UTC 19 Feb 2018

KBLU 190252Z AUTO 29006KT 10SM FEW024 SCT049 OVC060 M04/M06 A2973 RMK AO2 SLP085 60012 T10441056 53005
KBLU 190236Z AUTO 28008KT 10SM FEW017 SCT041 BKN060 M04/M06 A2973 RMK AO2 T10441056
KBLU 190225Z AUTO 26008G16KT 220V290 10SM SCT009 BKN022 BKN041 M04/M05 A2972 RMK AO2 T10441050
KBLU 190203Z AUTO 26006KT 10SM SCT004 BKN011 OVC020 M04/M04 A2973 RMK AO2 T10391039
KBLU 190152Z AUTO 24010G17KT 10SM BKN004 OVC009 M03/M04 A2972 RMK AO2 SNE18 SLP076 P0003 T10331039
KBLU 190127Z AUTO 24011G21KT 200V270 5SM BR BKN002 OVC010 M03/M03 A2971 RMK AO2 SNE18 P0003 T10331033
KBLU 190125Z AUTO 26011G21KT 1 1/4SM BR BKN002 OVC010 M03/M03 A2971 RMK AO2 SNE18 P0003 T10331033
KBLU 190052Z AUTO 24008G17KT M1/4SM SN FZFG VV002 M03/M03 A2971 RMK AO2 PK WND 22026/0007 SLP072 P0009 T10281028
KBLU 190017Z AUTO 22014G23KT 1/4SM SN FZFG BKN003 BKN012 OVC017 M02/M03 A2972 RMK AO2 PK WND 22026/0007 P0005 T10221028
KBLU 190010Z AUTO 22012G26KT 1/4SM SN FZFG SCT005 BKN010 OVC017 M02/M03 A2971 RMK AO2 PK WND 22026/0007 P0000 T10221028
KBLU 190006Z AUTO 22011G24KT 180V240 1SM -SN BR FEW007 BKN015 OVC024 M02/M03 A2971 RMK AO2 P0000 T10171033
KBLU 182352Z AUTO 21014G26KT 5SM -SN BR FEW005 BKN015 OVC033 M02/M03 A2971 RMK AO2 PK WND 21030/2332 SNE34B39 SLP066 P0006 60013 T10171033 10017 21017 56018
KBLU 182349Z AUTO 21014G26KT 4SM -SN BR FEW005 BKN017 OVC035 M02/M03 A2971 RMK AO2 PK WND 21030/2332 SNE34B39 P0006
KBLU 182338Z AUTO 21013G30KT 7SM BKN005 BKN021 OVC050 M02/M03 A2971 RMK AO2 PK WND 21030/2332 SNE34 P0006 T10171028
KBLU 182335Z AUTO 21015G30KT 1 3/4SM BR BKN003 BKN025 OVC050 M02/M03 A2971 RMK AO2 PK WND 21030/2332 SNE34 P0006 T10171028
KBLU 182302Z AUTO 20013G25KT 1/4SM SN FZFG VV003 M01/M02 A2971 RMK AO2 P0000 T10111017
KBLU 182252Z AUTO 22007KT 1/4SM SN FZFG BKN006 OVC012 M02/M02 A2972 RMK AO2 SLP065 P0007 T10171017
KBLU 182240Z AUTO 22007KT 1/4SM SN FZFG FEW004 BKN009 OVC017 M02/M02 A2973 RMK AO2 P0004 T10171022
KBLU 182233Z AUTO 21007KT 170V230 3/4SM -SN BR FEW007 BKN012 OVC037 M01/M03 A2974
KBLU 182229Z AUTO 23009KT 1 1/4SM -SN BR FEW010 BKN022 OVC037 M01/M03 A2974 RMK AO2 P0000 T10111028
KBLU 182227Z AUTO 22008KT 180V250 1 3/4SM -SN BR FEW010 BKN014 OVC037 M01/M03 A2974 RMK AO2 P0000 T10061028
KBLU 182152Z AUTO 22008G16KT 200V260 9SM -SN BKN014 OVC019 M01/M03 A2977 RMK AO2 SNB43 SLP080 P0000 T10061033
KBLU 182121Z AUTO 21007G17KT 170V230 10SM BKN014 BKN023 OVC039 00/M04 A2979 RMK AO2 T00001039
KBLU 182103Z AUTO 21011KT 10SM SCT015 BKN020 BKN029 01/M03 A2980 RMK AO2 T00061033
KBLU 182052Z AUTO 22012G19KT 10SM SCT018 SCT028 BKN040 01/M03 A2980 RMK AO2 SLP087 T00061033 58018
KBLU 181952Z AUTO 21008G20KT 180V250 10SM SCT019 BKN026 01/M03 A2984 RMK AO2 SLP098 T00111033
KBLU 181936Z AUTO 20011G14KT 10SM BKN016 BKN023 BKN029 01/M03 A2985 RMK AO2 T00111028
KBLU 181915Z AUTO 22011G19KT 10SM SCT005 BKN014 BKN024 01/M02 A2986 RMK AO2 T00111022
KBLU 181852Z AUTO 18011G22KT 10SM OVC007 01/M01 A2985 RMK AO2 CIG 004V011 SLP100 T00061011
KBLU 181752Z AUTO 18011KT 10SM BKN007 OVC012 00/M01 A2987 RMK AO2 CIG 002V009 SLP103 T00001011 10022 21006 56002
KBLU 181730Z AUTO 18014KT 10SM SCT005 BKN008 OVC012 00/M01 A2986 RMK AO2 CIG 006V009 T00001011
KBLU 181657Z AUTO 18015G21KT 3SM BR BKN002 OVC007 00/M01 A2987 RMK AO2 T00001006
KBLU 181655Z AUTO 17015G21KT 1 1/2SM BR BKN002 OVC009 00/M01 A2987 RMK AO2 VIS 1/4V5 T00001006
KBLU 181652Z AUTO 17012G20KT 3/4SM BR VV002 M01/M01 A2987 RMK AO2 SLP107 T10061006
KBLU 181600Z AUTO 18014G21KT 1/4SM FG VV002 00/00 A2988 RMK AO2 T00000000
KBLU 181552Z AUTO 20013G25KT 1/2SM FG OVC003 00/00 A2987 RMK AO2 SLP109 T00000000
KBLU 181547Z AUTO 17013G25KT 1 1/4SM BR OVC003 00/00 A2987 RMK AO2
KBLU 181543Z AUTO 19016G24KT 2 1/2SM BR OVC003 01/00 A2987 RMK AO2 CIG 002V008 T00060000
KBLU 181519Z AUTO 17012KT 6SM BR BKN005 OVC012 01/00 A2986 RMK AO2 CIG 004V008 T00060000
KBLU 181509Z AUTO 17009G18KT 8SM SCT007 BKN012 01/00 A2987 RMK AO2 T00110000
KBLU 181452Z AUTO 17013G20KT 10SM BKN013 01/M01 A2986 RMK AO2 SLP098 T00111006 56018
KBLU 181417Z AUTO 17015G20KT 10SM BKN013 02/M01 A2987 RMK AO2 T00171006
KBLU 181352Z AUTO 17013G17KT 10SM CLR 02/M01 A2988 RMK AO2 SLP102 T00171011
KBLU 181252Z AUTO 17010KT 10SM SCT055 02/M02 A2990 RMK AO2 SLP101 T00171017
KBLU 181152Z AUTO 16012KT 10SM FEW060 02/M01 A2993 RMK AO2 SLP109 T00221011 10061 20022 56016
KBLU 181114Z AUTO 16012G18KT 10SM SCT017 BKN065 03/M01 A2995 RMK AO2 T00281011
KBLU 181052Z AUTO 17012G18KT 10SM OVC018 03/M01 A2995 RMK AO2 SLP115 T00331011
KBLU 180952Z AUTO 17009KT 10SM BKN025 03/M01 A2996 RMK AO2 SLP118 T00331011
KBLU 180852Z AUTO 16008KT 10SM BKN024 04/M01 A2998 RMK AO2 SLP124 T00391006 56015
KBLU 180848Z AUTO 15010KT 10SM BKN023 04/00 A2998 RMK AO2
KBLU 180837Z AUTO 16009KT 10SM SCT023 04/00 A2999 RMK AO2 T00390000
KBLU 180809Z AUTO 16007KT 10SM BKN026 BKN036 04/01 A3000 RMK AO2 T00390006
KBLU 180752Z AUTO 16009KT 10SM FEW036 04/01 A3001 RMK AO2 SLP131 T00440006 401170044
KBLU 180652Z AUTO 16007KT 10SM SCT037 SCT070 05/01 A3003 RMK AO2 SLP139 T00500006
KBLU 180552Z AUTO 16007KT 10SM OVC049 06/00 A3005 RMK AO2 SLP143 T00610000 10106 20056 56013
KBLU 180452Z AUTO 17006KT 10SM SCT047 SCT055 06/00 A3006 RMK AO2 SLP150 T00560000
KBLU 180352Z AUTO 13004KT 10SM CLR 06/00 A3008 RMK AO2 SLP159 T00560000
KBLU 180252Z AUTO 14005KT 10SM CLR 06/00 A3010 RMK AO2 SLP166 T00610000 58012
KBLU 180152Z AUTO 18004KT 10SM CLR 07/00 A3011 RMK AO2 SLP169 T00670000
KBLU 180052Z AUTO 25005KT 10SM CLR 09/M01 A3013 RMK AO2 SLP170 T00891006
KBLU 172352Z AUTO 20005KT 10SM CLR 10/M01 A3014 RMK AO2 SLP170 T01001006 10117 20094 56013
KBLU 172252Z AUTO 20005KT 10SM CLR 10/M01 A3015 RMK AO2 SLP175 T01001011
KBLU 172152Z AUTO 22008KT 190V270 10SM CLR 10/M03 A3016 RMK AO2 SLP177 T01001033
KBLU 172052Z AUTO 18008KT 10SM CLR 11/M01 A3018 RMK AO2 SLP183 T01061011 58009
KBLU 171952Z AUTO 15008KT 10SM CLR 11/M02 A3020 RMK AO2 SLP190 T01061022
KBLU 171852Z AUTO 18008KT 10SM CLR 10/M03 A3021 RMK AO2 SLP196 T01001028
KBLU 171752Z AUTO VRB04KT 10SM CLR 11/M03 A3021 RMK AO2 SLP196 T01061028 10106 20067 53005
KBLU 171652Z AUTO 00000KT 10SM CLR 10/M03 A3020 RMK AO2 SLP190 T01001033